createdAt,value
2018-05-10T00:00:24.377Z,4.50
2018-05-10T00:01:24.251Z,4.40
2018-05-10T00:02:24.138Z,4.50
2018-05-10T00:03:23.998Z,4.20
2018-05-10T00:04:23.872Z,3.10
2018-05-10T00:05:23.747Z,4.20
2018-05-10T00:06:23.623Z,3.70
2018-05-10T00:07:23.498Z,4.50
2018-05-10T00:08:23.368Z,3.90
2018-05-10T00:09:23.247Z,3.40
2018-05-10T00:10:23.118Z,3.70
2018-05-10T00:11:22.992Z,3.30
2018-05-10T00:12:22.866Z,4.20
2018-05-10T00:13:22.743Z,4.50
2018-05-10T00:14:22.617Z,3.20
2018-05-10T00:15:22.489Z,5.60
2018-05-10T00:16:22.364Z,4.80
2018-05-10T00:17:22.236Z,3.80
2018-05-10T00:18:22.113Z,4.00
2018-05-10T00:19:21.991Z,4.10
2018-05-10T00:20:21.862Z,4.70
2018-05-10T00:21:21.738Z,5.40
2018-05-10T00:22:21.610Z,4.40
2018-05-10T00:23:21.483Z,4.40
2018-05-10T00:24:21.397Z,4.10
2018-05-10T00:25:21.231Z,4.30
2018-05-10T00:26:21.107Z,3.50
2018-05-10T00:27:20.979Z,4.20
2018-05-10T00:28:20.858Z,3.90
2018-05-10T00:29:20.728Z,4.50
2018-05-10T00:30:20.602Z,3.80
2018-05-10T00:31:20.477Z,5.10
2018-05-10T00:32:20.351Z,4.30
2018-05-10T00:33:20.226Z,4.70
2018-05-10T00:34:20.104Z,3.50
2018-05-10T00:35:19.973Z,3.60
2018-05-10T00:36:19.846Z,4.20
2018-05-10T00:37:19.725Z,5.30
2018-05-10T00:38:19.596Z,3.10
2018-05-10T00:39:19.470Z,3.30
2018-05-10T00:40:19.345Z,3.60
2018-05-10T00:41:19.223Z,7.30
2018-05-10T00:43:50.556Z,3.70
2018-05-10T00:44:50.385Z,4.70
2018-05-10T00:46:43.046Z,3.70
2018-05-10T00:47:42.912Z,4.00
2018-05-10T00:49:35.609Z,3.50
2018-05-10T00:50:35.440Z,4.00
2018-05-10T00:52:28.097Z,3.80
2018-05-10T00:53:27.961Z,3.80
2018-05-10T00:55:20.689Z,3.60
2018-05-10T00:56:20.518Z,4.10
2018-05-10T00:58:13.179Z,4.10
2018-05-10T00:59:13.041Z,3.90
2018-05-10T01:01:06.612Z,3.40
2018-05-10T01:02:06.442Z,5.10
2018-05-10T01:03:59.951Z,3.70
2018-05-10T01:04:59.818Z,3.60
2018-05-10T01:06:52.520Z,6.40
2018-05-10T01:07:52.354Z,5.30
2018-05-10T01:08:52.229Z,5.70
2018-05-10T01:09:52.104Z,3.70
2018-05-10T01:10:51.975Z,3.50
2018-05-10T01:11:51.850Z,3.80
2018-05-10T01:12:51.721Z,4.70
2018-05-10T01:13:51.597Z,4.90
2018-05-10T01:14:51.473Z,4.90
2018-05-10T01:15:51.343Z,4.10
2018-05-10T01:16:51.220Z,4.80
2018-05-10T01:17:51.095Z,4.70
2018-05-10T01:18:50.964Z,4.30
2018-05-10T01:19:50.840Z,3.70
2018-05-10T01:20:50.712Z,4.20
2018-05-10T01:21:50.588Z,4.20
2018-05-10T01:22:50.459Z,4.20
2018-05-10T01:23:50.333Z,3.70
2018-05-10T01:24:50.207Z,3.70
2018-05-10T01:25:50.081Z,5.00
2018-05-10T01:26:49.956Z,5.50
2018-05-10T01:27:49.826Z,5.20
2018-05-10T01:28:49.701Z,4.00
2018-05-10T01:29:49.573Z,4.10
2018-05-10T01:30:49.449Z,4.50
2018-05-10T01:31:49.319Z,3.80
2018-05-10T01:32:49.194Z,4.30
2018-05-10T01:33:49.068Z,5.20
2018-05-10T01:34:48.944Z,4.70
2018-05-10T01:35:48.816Z,4.70
2018-05-10T01:36:48.689Z,4.90
2018-05-10T01:37:48.563Z,3.70
2018-05-10T01:38:48.437Z,4.30
2018-05-10T01:39:48.308Z,5.00
2018-05-10T01:40:48.183Z,4.50
2018-05-10T01:41:48.055Z,4.00
2018-05-10T01:42:47.930Z,7.80
2018-05-10T01:43:47.804Z,5.60
2018-05-10T01:44:47.679Z,4.60
2018-05-10T01:45:47.549Z,5.30
2018-05-10T01:46:47.423Z,3.70
2018-05-10T01:47:47.299Z,4.80
2018-05-10T01:48:47.171Z,4.50
2018-05-10T01:49:47.043Z,5.10
2018-05-10T01:50:46.918Z,5.60
2018-05-10T01:51:46.789Z,5.10
2018-05-10T01:52:46.666Z,5.20
2018-05-10T01:53:46.540Z,5.10
2018-05-10T01:54:46.414Z,7.10
2018-05-10T01:55:46.286Z,3.70
2018-05-10T01:56:46.161Z,4.40
2018-05-10T01:57:46.034Z,4.80
2018-05-10T01:58:45.906Z,4.10
2018-05-10T01:59:45.784Z,4.20
2018-05-10T02:00:45.655Z,4.20
2018-05-10T02:01:45.526Z,4.30
2018-05-10T02:02:45.402Z,6.10
2018-05-10T02:03:45.275Z,4.80
2018-05-10T02:04:45.154Z,3.70
2018-05-10T02:05:45.021Z,4.70
2018-05-10T02:06:44.898Z,5.90
2018-05-10T02:07:44.767Z,5.60
2018-05-10T02:08:44.642Z,4.10
2018-05-10T02:09:44.516Z,4.10
2018-05-10T02:10:44.390Z,5.00
2018-05-10T02:11:44.264Z,4.80
2018-05-10T02:12:44.137Z,3.70
2018-05-10T02:13:44.011Z,4.70
2018-05-10T02:14:43.975Z,4.60
2018-05-10T02:15:43.757Z,3.70
2018-05-10T02:16:43.630Z,4.00
2018-05-10T02:17:43.504Z,5.20
2018-05-10T02:18:43.378Z,4.30
2018-05-10T02:19:43.250Z,3.70
2018-05-10T02:20:43.126Z,4.70
2018-05-10T02:21:42.998Z,3.60
2018-05-10T02:22:42.876Z,4.10
2018-05-10T02:23:42.747Z,5.30
2018-05-10T02:24:42.618Z,3.90
2018-05-10T02:25:42.492Z,4.60
2018-05-10T02:26:42.365Z,3.40
2018-05-10T02:27:42.237Z,4.60
2018-05-10T02:28:42.114Z,3.80
2018-05-10T02:29:42.044Z,4.10
2018-05-10T02:30:41.865Z,4.60
2018-05-10T02:31:41.732Z,4.70
2018-05-10T02:32:41.607Z,3.50
2018-05-10T02:33:41.483Z,4.00
2018-05-10T02:34:41.353Z,4.00
2018-05-10T02:35:41.226Z,3.70
2018-05-10T02:36:41.100Z,4.20
2018-05-10T02:37:40.982Z,4.10
2018-05-10T02:38:40.847Z,4.70
2018-05-10T02:39:40.720Z,3.80
2018-05-10T02:40:40.596Z,3.80
2018-05-10T02:41:40.470Z,4.90
2018-05-10T02:42:40.343Z,5.30
2018-05-10T02:43:40.217Z,4.70
2018-05-10T02:44:40.089Z,4.60
2018-05-10T02:45:39.965Z,4.40
2018-05-10T02:46:39.839Z,5.50
2018-05-10T02:47:39.708Z,5.00
2018-05-10T02:48:39.592Z,5.20
2018-05-10T02:49:39.459Z,4.90
2018-05-10T02:50:39.332Z,5.00
2018-05-10T02:51:39.204Z,4.80
2018-05-10T02:52:39.079Z,4.50
2018-05-10T02:53:38.952Z,4.40
2018-05-10T02:54:38.826Z,4.50
2018-05-10T02:55:38.701Z,4.50
2018-05-10T02:56:38.572Z,4.90
2018-05-10T02:57:38.445Z,5.10
2018-05-10T02:58:38.321Z,5.40
2018-05-10T02:59:38.191Z,4.70
2018-05-10T03:00:38.065Z,5.20
2018-05-10T03:01:37.940Z,5.80
2018-05-10T03:02:37.814Z,5.20
2018-05-10T03:03:37.683Z,4.40
2018-05-10T03:04:37.559Z,3.90
2018-05-10T03:05:37.434Z,4.70
2018-05-10T03:06:37.307Z,4.20
2018-05-10T03:07:37.178Z,4.00
2018-05-10T03:08:37.051Z,4.00
2018-05-10T03:09:36.925Z,5.40
2018-05-10T03:10:36.800Z,5.00
2018-05-10T03:11:36.674Z,3.90
2018-05-10T03:12:36.546Z,3.80
2018-05-10T03:13:36.418Z,5.30
2018-05-10T03:14:36.298Z,5.70
2018-05-10T03:15:36.170Z,4.20
2018-05-10T03:16:36.041Z,5.40
2018-05-10T03:17:35.911Z,5.60
2018-05-10T03:18:35.787Z,4.70
2018-05-10T03:19:35.657Z,5.70
2018-05-10T03:20:35.533Z,4.10
2018-05-10T03:21:35.406Z,4.60
2018-05-10T03:22:35.283Z,4.10
2018-05-10T03:23:35.153Z,5.80
2018-05-10T03:24:35.027Z,5.10
2018-05-10T03:25:34.899Z,5.20
2018-05-10T03:26:34.773Z,4.40
2018-05-10T03:27:34.647Z,4.40
2018-05-10T03:28:34.517Z,4.80
2018-05-10T03:29:34.391Z,4.40
2018-05-10T03:30:34.267Z,5.20
2018-05-10T03:31:34.137Z,5.70
2018-05-10T03:32:34.014Z,5.40
2018-05-10T03:33:33.888Z,6.60
2018-05-10T03:34:33.759Z,4.50
2018-05-10T03:35:33.632Z,6.30
2018-05-10T03:36:33.506Z,5.50
2018-05-10T03:37:33.378Z,4.70
2018-05-10T03:38:33.251Z,4.40
2018-05-10T03:39:33.124Z,6.10
2018-05-10T03:40:33.045Z,5.30
2018-05-10T03:41:32.871Z,4.60
2018-05-10T03:42:32.745Z,4.60
2018-05-10T03:43:32.618Z,4.40
2018-05-10T03:44:32.492Z,5.40
2018-05-10T03:45:32.363Z,4.60
2018-05-10T03:46:32.238Z,5.60
2018-05-10T03:47:32.112Z,4.30
2018-05-10T03:48:32.048Z,4.70
2018-05-10T03:49:31.858Z,4.00
2018-05-10T03:50:31.733Z,5.40
2018-05-10T03:51:31.606Z,5.50
2018-05-10T03:52:31.476Z,5.30
2018-05-10T03:53:31.350Z,4.70
2018-05-10T03:54:31.224Z,4.60
2018-05-10T03:55:31.098Z,5.10
2018-05-10T03:56:30.968Z,3.90
2018-05-10T03:57:30.843Z,4.80
2018-05-10T03:58:30.714Z,5.10
2018-05-10T03:59:30.591Z,4.40
2018-05-10T04:00:30.461Z,5.50
2018-05-10T04:01:30.336Z,4.80
2018-05-10T04:02:30.210Z,4.20
2018-05-10T04:03:30.081Z,4.90
2018-05-10T04:04:29.955Z,4.90
2018-05-10T04:05:29.829Z,3.90
2018-05-10T04:06:29.704Z,4.50
2018-05-10T04:07:29.576Z,5.10
2018-05-10T04:08:29.449Z,3.90
2018-05-10T04:09:29.321Z,4.40
2018-05-10T04:10:29.198Z,5.70
2018-05-10T04:11:29.067Z,4.00
2018-05-10T04:12:28.944Z,3.90
2018-05-10T04:13:28.816Z,3.70
2018-05-10T04:14:28.689Z,4.70
2018-05-10T04:15:28.627Z,4.90
2018-05-10T04:16:28.436Z,4.50
2018-05-10T04:17:28.313Z,3.90
2018-05-10T04:18:28.183Z,3.70
2018-05-10T04:19:28.057Z,3.90
2018-05-10T04:20:27.934Z,5.60
2018-05-10T04:21:27.806Z,4.70
2018-05-10T04:22:27.682Z,3.90
2018-05-10T04:23:27.552Z,3.90
2018-05-10T04:24:27.429Z,6.50
2018-05-10T04:25:27.302Z,6.30
2018-05-10T04:26:27.181Z,7.40
2018-05-10T04:27:27.051Z,3.50
2018-05-10T04:28:26.925Z,5.20
2018-05-10T04:29:26.800Z,5.20
2018-05-10T04:30:26.674Z,4.50
2018-05-10T04:31:26.548Z,4.40
2018-05-10T04:32:26.420Z,5.00
2018-05-10T04:33:26.300Z,4.00
2018-05-10T04:34:26.170Z,4.90
2018-05-10T04:35:26.042Z,4.40
2018-05-10T04:36:25.914Z,6.10
2018-05-10T04:37:25.792Z,3.90
2018-05-10T04:38:25.667Z,4.50
2018-05-10T04:39:25.547Z,4.90
2018-05-10T04:40:25.415Z,5.30
2018-05-10T04:41:25.288Z,3.90
2018-05-10T04:42:25.164Z,5.20
2018-05-10T04:43:25.037Z,4.50
2018-05-10T04:44:24.910Z,4.70
2018-05-10T04:45:24.782Z,5.10
2018-05-10T04:46:24.659Z,5.70
2018-05-10T04:47:24.532Z,3.90
2018-05-10T04:48:24.404Z,5.20
2018-05-10T04:49:24.278Z,4.90
2018-05-10T04:50:24.162Z,3.60
2018-05-10T04:51:24.026Z,3.70
2018-05-10T04:52:23.902Z,3.80
2018-05-10T04:53:23.777Z,4.10
2018-05-10T04:54:23.651Z,4.40
2018-05-10T04:55:23.524Z,4.30
2018-05-10T04:56:23.397Z,5.00
2018-05-10T04:57:23.274Z,4.70
2018-05-10T04:58:23.145Z,4.50
2018-05-10T04:59:23.019Z,3.60
2018-05-10T05:00:22.896Z,5.40
2018-05-10T05:01:22.768Z,4.20
2018-05-10T05:02:22.641Z,5.00
2018-05-10T05:03:22.581Z,4.20
2018-05-10T05:04:22.392Z,4.60
2018-05-10T05:05:22.264Z,4.00
2018-05-10T05:06:22.137Z,5.40
2018-05-10T05:07:22.011Z,4.50
2018-05-10T05:08:21.886Z,3.60
2018-05-10T05:09:21.761Z,5.20
2018-05-10T05:10:21.634Z,4.60
2018-05-10T05:11:21.510Z,4.20
2018-05-10T05:12:21.381Z,4.10
2018-05-10T05:13:21.256Z,4.10
2018-05-10T05:14:21.130Z,3.80
2018-05-10T05:15:21.006Z,3.80
2018-05-10T05:16:20.881Z,4.40
2018-05-10T05:17:20.754Z,4.30
2018-05-10T05:18:20.628Z,4.00
2018-05-10T05:19:20.504Z,5.20
2018-05-10T05:20:20.374Z,4.50
2018-05-10T05:21:20.249Z,4.70
2018-05-10T05:22:20.123Z,3.80
2018-05-10T05:23:19.999Z,4.50
2018-05-10T05:24:19.878Z,4.30
2018-05-10T05:25:19.745Z,3.80
2018-05-10T05:26:19.623Z,4.40
2018-05-10T05:27:19.495Z,3.50
2018-05-10T05:28:19.371Z,3.60
2018-05-10T05:29:19.245Z,4.10
2018-05-10T05:30:19.122Z,4.10
2018-05-10T05:31:18.994Z,3.70
2018-05-10T05:32:18.866Z,5.00
2018-05-10T05:33:18.744Z,4.00
2018-05-10T05:34:18.619Z,4.20
2018-05-10T05:35:18.491Z,4.50
2018-05-10T05:36:18.368Z,4.00
2018-05-10T05:37:18.243Z,5.40
2018-05-10T05:38:18.116Z,5.50
2018-05-10T05:39:17.993Z,3.90
2018-05-10T05:40:17.866Z,4.00
2018-05-10T05:41:17.760Z,3.90
2018-05-10T05:42:17.620Z,4.60
2018-05-10T05:43:17.516Z,3.70
2018-05-10T05:44:17.368Z,3.70
2018-05-10T05:45:17.240Z,5.00
2018-05-10T05:46:17.118Z,4.50
2018-05-10T05:47:16.991Z,5.60
2018-05-10T05:48:16.870Z,3.60
2018-05-10T05:49:16.741Z,3.60
2018-05-10T05:50:16.621Z,3.70
2018-05-10T05:51:16.518Z,3.80
2018-05-10T05:52:16.367Z,5.90
2018-05-10T05:53:16.242Z,3.90
2018-05-10T05:54:16.119Z,3.80
2018-05-10T05:55:15.991Z,3.70
2018-05-10T05:56:15.904Z,3.70
2018-05-10T05:57:15.744Z,4.40
2018-05-10T05:58:15.619Z,3.40
2018-05-10T05:59:15.492Z,3.50
2018-05-10T06:00:15.370Z,4.20
2018-05-10T06:01:15.245Z,4.10
2018-05-10T06:02:15.124Z,4.60
2018-05-10T06:03:14.997Z,4.70
2018-05-10T06:04:14.874Z,3.70
2018-05-10T06:05:14.748Z,3.30
2018-05-10T06:06:14.627Z,5.40
2018-05-10T06:07:14.497Z,4.30
2018-05-10T06:08:14.374Z,3.10
2018-05-10T06:09:14.249Z,4.30
2018-05-10T06:10:14.123Z,3.60
2018-05-10T06:11:14.000Z,3.40
2018-05-10T06:12:13.876Z,3.70
2018-05-10T06:13:13.753Z,5.50
2018-05-10T06:14:13.631Z,4.00
2018-05-10T06:15:13.504Z,3.30
2018-05-10T06:16:13.384Z,4.10
2018-05-10T06:17:13.256Z,3.90
2018-05-10T06:18:13.138Z,3.60
2018-05-10T06:19:13.010Z,4.90
2018-05-10T06:20:12.885Z,3.10
2018-05-10T06:21:12.785Z,4.20
2018-05-10T06:22:12.640Z,3.40
2018-05-10T06:23:12.513Z,4.30
2018-05-10T06:24:12.390Z,3.70
2018-05-10T06:25:12.312Z,3.60
2018-05-10T06:26:12.144Z,5.10
2018-05-10T06:27:12.019Z,3.20
2018-05-10T06:28:11.896Z,3.50
2018-05-10T06:29:11.775Z,3.20
2018-05-10T06:30:11.650Z,3.50
2018-05-10T06:31:11.526Z,3.00
2018-05-10T06:32:11.404Z,3.70
2018-05-10T06:33:11.279Z,3.40
2018-05-10T06:34:11.153Z,3.70
2018-05-10T06:35:11.032Z,3.40
2018-05-10T06:36:10.912Z,4.60
2018-05-10T06:37:10.786Z,3.00
2018-05-10T06:38:10.662Z,4.70
2018-05-10T06:39:10.538Z,4.40
2018-05-10T06:40:10.415Z,4.30
2018-05-10T06:41:10.294Z,4.00
2018-05-10T06:42:10.170Z,5.20
2018-05-10T06:43:10.044Z,3.40
2018-05-10T06:44:09.921Z,3.70
2018-05-10T06:45:09.799Z,3.40
2018-05-10T06:46:09.679Z,3.70
2018-05-10T06:47:09.556Z,3.00
2018-05-10T06:48:09.431Z,5.90
2018-05-10T06:49:09.308Z,4.30
2018-05-10T06:50:09.188Z,3.90
2018-05-10T06:51:09.063Z,3.20
2018-05-10T06:52:08.939Z,3.10
2018-05-10T06:53:08.816Z,3.30
2018-05-10T06:54:08.696Z,3.50
2018-05-10T06:55:08.571Z,3.20
2018-05-10T06:56:08.448Z,9.50
2018-05-10T06:57:08.324Z,10.50
2018-05-10T06:58:08.202Z,8.50
2018-05-10T06:59:08.080Z,13.80
2018-05-10T07:00:07.961Z,8.30
2018-05-10T07:01:07.835Z,4.20
2018-05-10T07:02:07.715Z,4.60
2018-05-10T07:03:07.593Z,9.30
2018-05-10T07:04:07.468Z,36.20
2018-05-10T07:05:07.347Z,89.20
2018-05-10T07:06:07.228Z,116.40
2018-05-10T07:07:07.103Z,164.50
2018-05-10T07:08:06.981Z,92.10
2018-05-10T07:09:06.858Z,22.70
2018-05-10T07:10:06.737Z,23.20
2018-05-10T07:11:06.618Z,15.40
2018-05-10T07:12:06.491Z,55.80
2018-05-10T07:13:06.372Z,33.00
2018-05-10T07:14:06.250Z,6.20
2018-05-10T07:15:06.126Z,6.30
2018-05-10T07:16:06.008Z,6.80
2018-05-10T07:17:05.887Z,4.90
2018-05-10T07:18:05.762Z,6.70
2018-05-10T07:19:05.640Z,5.80
2018-05-10T07:20:05.522Z,6.50
2018-05-10T07:21:05.406Z,4.00
2018-05-10T07:22:05.281Z,3.60
2018-05-10T07:23:05.155Z,5.80
2018-05-10T07:24:05.040Z,10.20
2018-05-10T07:25:04.994Z,5.60
2018-05-10T07:26:04.794Z,8.00
2018-05-10T07:27:04.674Z,9.20
2018-05-10T07:28:04.552Z,13.10
2018-05-10T07:29:04.428Z,14.50
2018-05-10T07:30:04.306Z,9.30
2018-05-10T07:31:04.185Z,12.90
2018-05-10T07:32:04.066Z,5.50
2018-05-10T07:33:04.023Z,3.50
2018-05-10T07:34:03.824Z,4.30
2018-05-10T07:35:03.702Z,4.70
2018-05-10T07:36:03.580Z,3.00
2018-05-10T07:37:03.460Z,3.00
2018-05-10T07:38:03.341Z,3.30
2018-05-10T07:39:03.219Z,3.90
2018-05-10T07:40:03.097Z,3.70
2018-05-10T07:41:02.979Z,6.70
2018-05-10T07:42:02.925Z,3.80
2018-05-10T07:43:02.734Z,3.40
2018-05-10T07:44:02.615Z,3.90
2018-05-10T07:45:02.497Z,3.10
2018-05-10T07:46:02.376Z,3.20
2018-05-10T07:47:02.255Z,5.20
2018-05-10T07:48:02.132Z,2.80
2018-05-10T07:49:02.009Z,5.50
2018-05-10T07:50:01.894Z,3.20
2018-05-10T07:51:01.769Z,3.20
2018-05-10T07:52:01.646Z,3.60
2018-05-10T07:53:01.528Z,4.10
2018-05-10T07:54:01.405Z,5.20
2018-05-10T07:55:01.285Z,3.20
2018-05-10T07:56:01.166Z,3.10
2018-05-10T07:57:01.043Z,3.00
2018-05-10T07:58:00.925Z,3.10
2018-05-10T07:59:00.799Z,4.00
2018-05-10T08:00:00.680Z,4.00
2018-05-10T08:01:00.555Z,5.20
2018-05-10T08:02:00.435Z,2.90
2018-05-10T08:03:00.313Z,3.20
2018-05-10T08:04:00.190Z,4.00
2018-05-10T08:05:00.070Z,3.30
2018-05-10T08:05:59.950Z,3.40
2018-05-10T08:06:59.829Z,3.10
2018-05-10T08:07:59.707Z,3.90
2018-05-10T08:08:59.582Z,2.90
2018-05-10T08:09:59.472Z,3.80
2018-05-10T08:10:59.342Z,4.90
2018-05-10T08:11:59.223Z,3.70
2018-05-10T08:12:59.102Z,4.10
2018-05-10T08:13:58.980Z,3.90
2018-05-10T08:14:58.860Z,3.60
2018-05-10T08:15:58.737Z,3.60
2018-05-10T08:16:58.677Z,2.90
2018-05-10T08:17:58.500Z,3.40
2018-05-10T08:18:58.376Z,2.90
2018-05-10T08:19:58.253Z,4.20
2018-05-10T08:20:58.133Z,2.80
2018-05-10T08:21:58.013Z,3.50
2018-05-10T08:22:57.970Z,3.30
2018-05-10T08:23:57.778Z,3.70
2018-05-10T08:24:57.653Z,3.00
2018-05-10T08:25:57.529Z,3.00
2018-05-10T08:26:57.415Z,3.10
2018-05-10T08:27:57.293Z,3.00
2018-05-10T08:28:57.167Z,3.30
2018-05-10T08:29:57.048Z,3.80
2018-05-10T08:30:56.927Z,3.70
2018-05-10T08:31:56.806Z,4.10
2018-05-10T08:32:56.684Z,6.00
2018-05-10T08:33:56.563Z,4.40
2018-05-10T08:34:56.439Z,3.60
2018-05-10T08:35:56.321Z,3.50
2018-05-10T08:36:56.200Z,3.60
2018-05-10T08:37:56.081Z,4.60
2018-05-10T08:38:55.957Z,4.60
2018-05-10T08:39:55.835Z,4.50
2018-05-10T08:40:55.718Z,4.20
2018-05-10T08:41:55.595Z,4.20
2018-05-10T08:42:55.522Z,3.50
2018-05-10T08:43:55.351Z,3.70
2018-05-10T08:44:55.253Z,5.00
2018-05-10T08:45:55.109Z,3.80
2018-05-10T08:46:54.985Z,4.60
2018-05-10T08:47:54.864Z,4.80
2018-05-10T08:48:54.812Z,4.90
2018-05-10T08:49:54.623Z,3.70
2018-05-10T08:50:54.500Z,3.20
2018-05-10T08:51:54.392Z,3.70
2018-05-10T08:52:54.259Z,3.90
2018-05-10T08:53:54.138Z,4.80
2018-05-10T08:54:54.018Z,3.90
2018-05-10T08:55:53.896Z,3.40
2018-05-10T08:56:53.777Z,3.60
2018-05-10T08:57:53.658Z,3.50
2018-05-10T08:58:53.530Z,3.90
2018-05-10T08:59:53.488Z,4.00
2018-05-10T09:00:53.290Z,3.10
2018-05-10T09:01:53.171Z,2.90
2018-05-10T09:02:53.049Z,3.30
2018-05-10T09:03:52.930Z,3.20
2018-05-10T09:04:52.806Z,3.40
2018-05-10T09:05:52.685Z,4.40
2018-05-10T09:06:52.565Z,3.80
2018-05-10T09:07:52.441Z,5.30
2018-05-10T09:08:52.321Z,3.90
2018-05-10T09:09:52.200Z,4.30
2018-05-10T09:10:52.083Z,4.50
2018-05-10T09:11:51.960Z,3.20
2018-05-10T09:12:51.861Z,4.50
2018-05-10T09:13:51.721Z,5.10
2018-05-10T09:14:51.601Z,4.40
2018-05-10T09:15:51.480Z,4.50
2018-05-10T09:16:51.354Z,3.70
2018-05-10T09:17:51.234Z,4.70
2018-05-10T09:18:51.113Z,3.30
2018-05-10T09:19:50.995Z,4.50
2018-05-10T09:20:50.874Z,3.60
2018-05-10T09:21:50.755Z,4.10
2018-05-10T09:22:50.629Z,3.80
2018-05-10T09:23:50.511Z,3.30
2018-05-10T09:24:50.391Z,3.00
2018-05-10T09:25:50.268Z,3.30
2018-05-10T09:26:50.148Z,4.50
2018-05-10T09:27:50.028Z,4.50
2018-05-10T09:28:49.907Z,4.10
2018-05-10T09:29:49.785Z,5.20
2018-05-10T09:30:49.665Z,4.50
2018-05-10T09:31:49.546Z,3.30
2018-05-10T09:32:49.424Z,2.80
2018-05-10T09:33:49.391Z,3.70
2018-05-10T09:34:49.185Z,3.60
2018-05-10T09:35:49.064Z,3.80
2018-05-10T09:36:48.942Z,3.10
2018-05-10T09:37:48.824Z,4.10
2018-05-10T09:38:48.700Z,3.80
2018-05-10T09:39:48.580Z,3.60
2018-05-10T09:40:48.459Z,3.10
2018-05-10T09:41:48.339Z,4.10
2018-05-10T09:42:48.218Z,3.40
2018-05-10T09:43:48.098Z,4.90
2018-05-10T09:44:48.029Z,3.70
2018-05-10T09:45:47.855Z,5.00
2018-05-10T09:46:47.734Z,4.50
2018-05-10T09:47:47.615Z,4.90
2018-05-10T09:48:47.495Z,3.10
2018-05-10T09:49:47.374Z,2.90
2018-05-10T09:50:47.254Z,4.40
2018-05-10T09:51:47.132Z,4.10
2018-05-10T09:52:47.073Z,3.90
2018-05-10T09:53:46.894Z,3.30
2018-05-10T09:54:46.769Z,3.80
2018-05-10T09:55:46.651Z,4.60
2018-05-10T09:56:46.534Z,4.50
2018-05-10T09:57:46.407Z,4.00
2018-05-10T09:58:46.287Z,3.10
2018-05-10T09:59:46.257Z,3.30
2018-05-10T10:00:46.046Z,3.90
2018-05-10T10:01:45.928Z,3.70
2018-05-10T10:02:45.806Z,3.30
2018-05-10T10:03:45.685Z,4.20
2018-05-10T10:04:45.564Z,3.10
2018-05-10T10:05:45.455Z,3.40
2018-05-10T10:06:45.321Z,4.50
2018-05-10T10:07:45.203Z,3.60
2018-05-10T10:08:45.084Z,4.10
2018-05-10T10:09:44.962Z,2.90
2018-05-10T10:10:44.841Z,4.40
2018-05-10T10:11:44.736Z,2.80
2018-05-10T10:12:44.599Z,3.40
2018-05-10T10:13:44.479Z,3.40
2018-05-10T10:14:44.361Z,3.40
2018-05-10T10:15:44.269Z,4.50
2018-05-10T10:16:44.119Z,4.50
2018-05-10T10:17:44.097Z,3.70
2018-05-10T10:18:43.877Z,3.30
2018-05-10T10:19:43.756Z,4.10
2018-05-10T10:20:43.638Z,3.40
2018-05-10T10:21:43.519Z,3.70
2018-05-10T10:22:43.395Z,4.40
2018-05-10T10:23:43.273Z,3.50
2018-05-10T10:24:43.156Z,3.40
2018-05-10T10:25:43.036Z,3.60
2018-05-10T10:26:42.913Z,3.60
2018-05-10T10:27:42.793Z,3.50
2018-05-10T10:28:42.674Z,3.40
2018-05-10T10:29:42.557Z,4.40
2018-05-10T10:30:42.432Z,3.40
2018-05-10T10:31:42.315Z,4.70
2018-05-10T10:32:42.193Z,3.40
2018-05-10T10:33:42.074Z,3.90
2018-05-10T10:34:41.953Z,3.80
2018-05-10T10:35:41.831Z,3.70
2018-05-10T10:36:41.711Z,3.40
2018-05-10T10:37:41.594Z,4.50
2018-05-10T10:38:41.469Z,3.60
2018-05-10T10:39:41.352Z,4.90
2018-05-10T10:40:41.232Z,3.60
2018-05-10T10:41:41.111Z,5.40
2018-05-10T10:42:40.988Z,3.10
2018-05-10T10:43:40.869Z,3.40
2018-05-10T10:44:40.747Z,3.60
2018-05-10T10:45:40.626Z,3.70
2018-05-10T10:46:40.506Z,4.00
2018-05-10T10:47:40.386Z,3.80
2018-05-10T10:48:40.268Z,3.10
2018-05-10T10:49:40.147Z,3.40
2018-05-10T10:50:40.029Z,3.80
2018-05-10T10:51:39.904Z,4.30
2018-05-10T10:52:39.784Z,4.40
2018-05-10T10:53:39.666Z,3.10
2018-05-10T10:54:39.546Z,3.20
2018-05-10T10:55:39.425Z,4.40
2018-05-10T10:56:39.304Z,3.30
2018-05-10T10:57:39.181Z,3.10
2018-05-10T10:58:39.060Z,4.30
2018-05-10T10:59:38.940Z,3.00
2018-05-10T11:00:38.822Z,3.90
2018-05-10T11:01:38.701Z,3.60
2018-05-10T11:02:38.580Z,3.50
2018-05-10T11:03:38.456Z,3.10
2018-05-10T11:04:38.334Z,3.70
2018-05-10T11:05:38.216Z,4.20
2018-05-10T11:06:38.097Z,3.90
2018-05-10T11:07:37.971Z,3.90
2018-05-10T11:08:37.860Z,4.10
2018-05-10T11:09:37.733Z,3.60
2018-05-10T11:10:37.609Z,4.30
2018-05-10T11:11:37.491Z,4.30
2018-05-10T11:12:37.368Z,4.80
2018-05-10T11:13:37.248Z,3.80
2018-05-10T11:14:37.124Z,4.60
2018-05-10T11:15:37.006Z,5.50
2018-05-10T11:16:36.881Z,5.20
2018-05-10T11:17:36.759Z,4.20
2018-05-10T11:18:36.648Z,5.90
2018-05-10T11:19:36.521Z,5.50
2018-05-10T11:20:36.397Z,5.60
2018-05-10T11:21:36.275Z,7.50
2018-05-10T11:22:36.233Z,6.30
2018-05-10T11:23:36.029Z,5.10
2018-05-10T11:24:35.911Z,6.10
2018-05-10T11:25:35.789Z,5.70
2018-05-10T11:26:35.663Z,5.30
2018-05-10T11:27:35.545Z,7.60
2018-05-10T11:28:35.421Z,7.80
2018-05-10T11:29:35.298Z,8.10
2018-05-10T11:30:35.173Z,7.00
2018-05-10T11:31:35.053Z,6.50
2018-05-10T11:32:34.936Z,5.30
2018-05-10T11:33:34.811Z,6.50
2018-05-10T11:34:34.683Z,5.30
2018-05-10T11:35:34.561Z,6.80
2018-05-10T11:36:34.441Z,6.10
2018-05-10T11:37:34.317Z,6.80
2018-05-10T11:38:34.194Z,5.30
2018-05-10T11:39:34.073Z,5.40
2018-05-10T11:40:33.951Z,5.80
2018-05-10T11:41:33.825Z,5.00
2018-05-10T11:42:33.707Z,4.70
2018-05-10T11:43:33.583Z,4.50
2018-05-10T11:44:33.473Z,5.00
2018-05-10T11:45:33.341Z,4.60
2018-05-10T11:46:33.214Z,5.70
2018-05-10T11:47:33.095Z,4.40
2018-05-10T11:48:32.973Z,4.20
2018-05-10T11:49:32.850Z,4.70
2018-05-10T11:50:32.727Z,4.10
2018-05-10T11:51:32.606Z,3.80
2018-05-10T11:52:32.484Z,4.10
2018-05-10T11:53:32.365Z,4.10
2018-05-10T11:54:32.241Z,3.90
2018-05-10T11:55:32.119Z,4.20
2018-05-10T11:56:31.999Z,4.00
2018-05-10T11:57:31.876Z,4.60
2018-05-10T11:58:31.753Z,4.70
2018-05-10T11:59:31.634Z,3.50
2018-05-10T12:00:31.512Z,3.90
2018-05-10T12:01:31.391Z,5.40
2018-05-10T12:02:31.349Z,3.70
2018-05-10T12:03:31.147Z,4.50
2018-05-10T12:04:31.027Z,3.80
2018-05-10T12:05:30.904Z,3.10
2018-05-10T12:06:30.785Z,3.40
2018-05-10T12:07:30.663Z,3.60
2018-05-10T12:08:30.543Z,3.20
2018-05-10T12:09:30.422Z,4.20
2018-05-10T12:10:30.299Z,3.90
2018-05-10T12:11:30.175Z,3.60
2018-05-10T12:12:30.059Z,3.50
2018-05-10T12:13:29.936Z,3.20
2018-05-10T12:14:29.816Z,4.00
2018-05-10T12:15:29.691Z,3.50
2018-05-10T12:16:29.575Z,3.60
2018-05-10T12:17:29.451Z,4.30
2018-05-10T12:18:29.328Z,3.40
2018-05-10T12:19:29.209Z,5.20
2018-05-10T12:20:29.187Z,3.20
2018-05-10T12:21:28.964Z,3.70
2018-05-10T12:22:28.846Z,5.00
2018-05-10T12:23:28.721Z,3.60
2018-05-10T12:24:28.603Z,4.10
2018-05-10T12:25:28.493Z,4.80
2018-05-10T12:26:28.356Z,5.10
2018-05-10T12:27:28.239Z,3.50
2018-05-10T12:28:28.125Z,3.10
2018-05-10T12:29:27.994Z,3.90
2018-05-10T12:30:27.931Z,3.20
2018-05-10T12:31:27.749Z,3.70
2018-05-10T12:32:27.631Z,3.90
2018-05-10T12:33:27.505Z,3.10
2018-05-10T12:34:27.386Z,4.10
2018-05-10T12:35:27.267Z,3.90
2018-05-10T12:36:27.144Z,3.70
2018-05-10T12:37:27.021Z,3.80
2018-05-10T12:38:26.898Z,4.00
2018-05-10T12:39:26.777Z,3.10
2018-05-10T12:40:26.693Z,4.00
2018-05-10T12:41:26.536Z,2.90
2018-05-10T12:42:26.415Z,4.00
2018-05-10T12:43:26.293Z,3.00
2018-05-10T12:44:26.173Z,3.10
2018-05-10T12:45:26.056Z,3.90
2018-05-10T12:46:25.931Z,3.00
2018-05-10T12:47:25.811Z,3.30
2018-05-10T12:48:25.687Z,3.80
2018-05-10T12:49:25.572Z,2.90
2018-05-10T12:50:25.450Z,2.80
2018-05-10T12:51:25.325Z,3.80
2018-05-10T12:52:25.209Z,3.30
2018-05-10T12:53:25.090Z,3.50
2018-05-10T12:54:24.976Z,3.00
2018-05-10T12:55:24.842Z,3.20
2018-05-10T12:56:24.805Z,4.00
2018-05-10T12:57:24.604Z,3.40
2018-05-10T12:58:24.482Z,3.30
2018-05-10T12:59:24.366Z,3.30
2018-05-10T13:00:24.268Z,3.60
2018-05-10T13:01:24.125Z,3.50
2018-05-10T13:02:24.009Z,2.80
2018-05-10T13:03:23.891Z,3.60
2018-05-10T13:04:23.771Z,3.30
2018-05-10T13:05:23.659Z,2.90
2018-05-10T13:06:23.536Z,3.90
2018-05-10T13:07:23.417Z,2.70
2018-05-10T13:08:23.307Z,3.60
2018-05-10T13:09:23.179Z,3.40
2018-05-10T13:10:23.056Z,2.90
2018-05-10T13:11:22.940Z,3.20
2018-05-10T13:12:22.819Z,2.90
2018-05-10T13:13:22.767Z,2.70
2018-05-10T13:14:22.580Z,3.00
2018-05-10T13:15:22.461Z,3.50
2018-05-10T13:16:22.341Z,3.50
2018-05-10T13:17:22.224Z,2.70
2018-05-10T13:18:22.102Z,2.80
2018-05-10T13:19:22.008Z,3.30
2018-05-10T13:20:21.861Z,3.90
2018-05-10T13:21:21.743Z,2.80
2018-05-10T13:22:21.619Z,3.30
2018-05-10T13:23:21.499Z,3.90
2018-05-10T13:24:21.379Z,3.30